Okara Weather



Okara's Current Weather

Temprature 15.88o overcast clouds

overcast clouds

Rain: 0 %

Min Temprature15.88o
Max Temprature15.88o
Humidity27
Wind Speed2.62 m/h
Sun Rise06:54:11
Sun Set17:05:20
Current Time: 12-Dec-2019 01:25:58
Lat/Lon: 30.81, 73.45




Okara's Geo Location



Okara's Weather Forecast

Time Overall Temp Min Temp Max Temp Humidity Wind Speed Rain
12-Dec-2019 (Thu)
02:00:00 overcast clouds 15.880 15.880 15.880 27 2.62 m/h 0 %
05:00:00 overcast clouds 16.220 16.220 16.220 28 2.36 m/h 0 %
08:00:00 overcast clouds 16.020 16.020 16.020 35 3.08 m/h 0 %
11:00:00 light rain 12.530 12.530 12.530 84 1.92 m/h 169 %
14:00:00 moderate rain 12.320 12.320 12.320 85 4.31 m/h 825 %
17:00:00 moderate rain 12.160 12.160 12.160 88 5.41 m/h 344 %
20:00:00 light rain 11.710 11.710 11.710 89 3.72 m/h 250 %
23:00:00 light rain 11.560 11.560 11.560 90 2.78 m/h 131 %
13-Dec-2019 (Fri)
02:00:00 light rain 11.570 11.570 11.570 89 2.54 m/h 19 %
05:00:00 overcast clouds 11.530 11.530 11.530 88 2.85 m/h 0 %
08:00:00 overcast clouds 11.120 11.120 11.120 88 2.26 m/h 0 %
11:00:00 broken clouds 15.430 15.430 15.430 62 3.37 m/h 0 %
14:00:00 clear sky 17.250 17.250 17.250 53 3.11 m/h 0 %
17:00:00 few clouds 14.910 14.910 14.910 63 2.22 m/h 0 %
20:00:00 clear sky 13.360 13.360 13.360 67 0.75 m/h 0 %
23:00:00 clear sky 12.210 12.210 12.210 72 1.77 m/h 0 %
14-Dec-2019 (Sat)
02:00:00 clear sky 11.490 11.490 11.490 72 0.71 m/h 0 %
05:00:00 clear sky 10.900 10.900 10.900 74 0.38 m/h 0 %
08:00:00 clear sky 12.200 12.200 12.200 70 1.1 m/h 0 %
11:00:00 clear sky 17.100 17.100 17.100 51 1.75 m/h 0 %
14:00:00 clear sky 18.750 18.750 18.750 44 1.33 m/h 0 %
17:00:00 clear sky 15.850 15.850 15.850 52 0.98 m/h 0 %
20:00:00 clear sky 14.170 14.170 14.170 58 1.25 m/h 0 %
23:00:00 scattered clouds 13.360 13.360 13.360 62 0.69 m/h 0 %
15-Dec-2019 (Sun)
02:00:00 overcast clouds 12.590 12.590 12.590 65 1.42 m/h 0 %
05:00:00 overcast clouds 12.170 12.170 12.170 67 1.77 m/h 0 %
08:00:00 broken clouds 12.430 12.430 12.430 70 1.81 m/h 0 %
11:00:00 scattered clouds 17.890 17.890 17.890 47 3.77 m/h 0 %
14:00:00 clear sky 19.700 19.700 19.700 36 4.02 m/h 0 %
17:00:00 clear sky 16.350 16.350 16.350 44 1.21 m/h 0 %
20:00:00 clear sky 14.050 14.050 14.050 51 0.61 m/h 0 %
23:00:00 clear sky 12.710 12.710 12.710 54 1.39 m/h 0 %
16-Dec-2019 (Mon)
02:00:00 clear sky 11.740 11.740 11.740 58 1.34 m/h 0 %
05:00:00 clear sky 11.210 11.210 11.210 64 1.45 m/h 0 %
08:00:00 clear sky 12.000 12.000 12.000 64 1.15 m/h 0 %
11:00:00 clear sky 17.490 17.490 17.490 43 2.21 m/h 0 %
14:00:00 clear sky 19.570 19.570 19.570 33 2.89 m/h 0 %
17:00:00 clear sky 16.310 16.310 16.310 41 1.94 m/h 0 %
20:00:00 clear sky 13.950 13.950 13.950 45 1.38 m/h 0 %
23:00:00 clear sky 12.640 12.640 12.640 48 2.09 m/h 0 %

Famous Cities (61)